Time;durP1;ratioP1;P1;durP2;ratioP2;P2;SDS_P1;SDS_P2;PMS_P1;PMS_P2;Temp;Humidity;BMP_temperature;BMP_pressure;BME280_temperature;BME280_humidity;BME280_pressure;Samples;Min_cycle;Max_cycle;Signal;HPM_P1;HPM_P2
2023/10/01 00:00:11;;;;;;;26.70;11.10;;;15.20;99.90;;;;;;5059994;28;20021;-74
2023/10/01 00:02:37;;;;;;;27.35;12.23;;;15.20;99.90;;;;;;5060593;28;20074;-75
2023/10/01 00:05:05;;;;;;;24.38;12.10;;;15.20;99.90;;;;;;5060794;28;20045;-74
2023/10/01 00:07:31;;;;;;;22.88;10.43;;;15.10;99.90;;;;;;5061051;28;20032;-74
2023/10/01 00:09:56;;;;;;;16.50;9.52;;;15.10;99.90;;;;;;5061542;28;20032;-74
2023/10/01 00:12:25;;;;;;;18.88;9.82;;;15.10;99.90;;;;;;5061707;28;20036;-75
2023/10/01 00:14:53;;;;;;;21.35;9.13;;;15.10;99.90;;;;;;5061645;28;20036;-77
2023/10/01 00:17:22;;;;;;;21.65;8.95;;;15.00;99.90;;;;;;5061171;28;20497;-75
2023/10/01 00:19:48;;;;;;;22.17;9.23;;;15.00;99.90;;;;;;5060640;28;20033;-75
2023/10/01 00:22:14;;;;;;;23.45;9.80;;;15.00;99.90;;;;;;5061859;28;20485;-76
2023/10/01 00:24:41;;;;;;;18.25;9.40;;;14.90;99.90;;;;;;5061784;28;20096;-75
2023/10/01 00:27:09;;;;;;;20.63;9.57;;;14.90;99.90;;;;;;5059621;28;20565;-75
2023/10/01 00:29:40;;;;;;;20.13;8.80;;;14.90;99.90;;;;;;5060472;28;20033;-77
2023/10/01 00:32:05;;;;;;;19.48;9.32;;;14.90;99.90;;;;;;5061247;28;20865;-75
2023/10/01 00:34:31;;;;;;;33.97;12.52;;;14.90;99.90;;;;;;5061410;28;20028;-75
2023/10/01 00:36:56;;;;;;;41.60;18.50;;;14.90;99.90;;;;;;5060647;28;20097;-77
2023/10/01 00:39:22;;;;;;;41.83;17.90;;;14.90;99.90;;;;;;5061663;28;20032;-76
2023/10/01 00:41:48;;;;;;;39.72;14.50;;;14.90;99.90;;;;;;5061350;28;20037;-76
2023/10/01 00:44:14;;;;;;;32.85;14.38;;;14.90;99.90;;;;;;5059985;28;20021;-76
2023/10/01 00:46:40;;;;;;;19.25;11.27;;;14.90;99.90;;;;;;5059822;28;20021;-77
2023/10/01 00:49:07;;;;;;;27.48;12.75;;;14.90;99.90;;;;;;5059683;28;20106;-77
2023/10/01 00:51:33;;;;;;;29.90;14.25;;;14.90;99.90;;;;;;5060535;28;20045;-76
2023/10/01 00:54:02;;;;;;;26.75;12.60;;;14.90;99.90;;;;;;5061455;28;20090;-74
2023/10/01 00:56:31;;;;;;;24.95;12.45;;;14.90;99.90;;;;;;5061167;28;20501;-76
2023/10/01 00:58:57;;;;;;;26.88;11.70;;;14.90;99.90;;;;;;5060541;28;20025;-75
2023/10/01 01:01:26;;;;;;;19.10;9.98;;;14.90;99.90;;;;;;5059705;28;20100;-75
2023/10/01 01:03:52;;;;;;;21.42;10.93;;;14.90;99.90;;;;;;5059686;28;20040;-75
2023/10/01 01:06:36;;;;;;;19.77;9.52;;;14.80;99.90;;;;;;5060080;28;20535;-78
2023/10/01 01:09:02;;;;;;;27.23;11.75;;;14.80;99.90;;;;;;5060734;28;20017;-74
2023/10/01 01:11:27;;;;;;;23.02;11.05;;;14.80;99.90;;;;;;5060516;28;20875;-75
2023/10/01 01:13:53;;;;;;;25.10;11.38;;;14.80;99.90;;;;;;5059788;28;20495;-76
2023/10/01 01:16:21;;;;;;;29.98;11.98;;;14.80;99.90;;;;;;5060822;28;20021;-74
2023/10/01 01:18:51;;;;;;;30.55;13.50;;;14.80;99.90;;;;;;5061461;28;20081;-76
2023/10/01 01:21:17;;;;;;;30.00;13.48;;;14.80;99.90;;;;;;5060065;28;20035;-75
2023/10/01 01:23:45;;;;;;;29.80;13.23;;;14.80;99.90;;;;;;5060521;28;20036;-76
2023/10/01 01:26:15;;;;;;;27.38;13.00;;;14.80;99.90;;;;;;5060705;28;20045;-75
2023/10/01 01:28:44;;;;;;;21.80;10.80;;;14.80;99.90;;;;;;5063206;28;20044;-76
2023/10/01 01:31:10;;;;;;;27.95;12.05;;;14.80;99.90;;;;;;5063039;28;20036;-77
2023/10/01 01:33:52;;;;;;;24.58;12.00;;;14.80;99.90;;;;;;5065103;28;20701;-75
2023/10/01 01:36:19;;;;;;;22.98;11.50;;;14.80;99.90;;;;;;5063636;28;20044;-75
2023/10/01 01:39:26;;;;;;;23.33;11.63;;;14.80;99.90;;;;;;5062343;28;20017;-75
2023/10/01 01:41:52;;;;;;;19.83;10.82;;;14.80;99.90;;;;;;5062732;28;20025;-76
2023/10/01 01:44:19;;;;;;;26.40;11.07;;;14.70;99.90;;;;;;5062314;28;20028;-77
2023/10/01 01:46:48;;;;;;;21.13;11.23;;;14.70;99.90;;;;;;5063278;28;20044;-77
2023/10/01 01:49:18;;;;;;;26.50;12.07;;;14.70;99.90;;;;;;5064955;28;20079;-75
2023/10/01 01:51:57;;;;;;;22.23;11.95;;;14.70;99.90;;;;;;5064093;28;20025;-76
2023/10/01 01:54:26;;;;;;;24.20;11.68;;;14.70;99.90;;;;;;5062748;28;20124;-76
2023/10/01 01:56:52;;;;;;;27.75;11.65;;;14.70;99.90;;;;;;5064457;28;20024;-75
2023/10/01 01:59:21;;;;;;;19.55;10.57;;;14.60;99.90;;;;;;5063244;28;20021;-75
2023/10/01 02:01:47;;;;;;;26.65;12.18;;;14.60;99.90;;;;;;5064378;28;20486;-75
2023/10/01 02:04:12;;;;;;;19.58;10.82;;;14.60;99.90;;;;;;5063432;28;20021;-75
2023/10/01 02:06:38;;;;;;;24.15;12.10;;;14.60;99.90;;;;;;5062156;28;20040;-76
2023/10/01 02:09:12;;;;;;;28.50;11.88;;;14.60;99.90;;;;;;5062522;28;20093;-76
2023/10/01 02:11:38;;;;;;;;;;;14.60;99.90;;;;;;5064380;28;20091;-76
2023/10/01 02:14:05;;;;;;;25.48;10.88;;;14.60;99.90;;;;;;5063693;28;20590;-77
2023/10/01 02:16:37;;;;;;;23.88;11.15;;;14.60;99.90;;;;;;5062568;28;20021;-75
2023/10/01 02:19:21;;;;;;;22.55;11.63;;;14.60;99.90;;;;;;5062263;28;20021;-77
2023/10/01 02:21:52;;;;;;;24.67;11.45;;;14.60;99.90;;;;;;5062443;28;20040;-77
2023/10/01 02:24:23;;;;;;;27.13;12.40;;;14.60;99.90;;;;;;5063802;28;20025;-79
2023/10/01 02:26:58;;;;;;;25.65;11.95;;;14.60;99.90;;;;;;5061532;28;20021;-76
2023/10/01 02:29:25;;;;;;;30.90;12.60;;;14.60;99.90;;;;;;5061926;28;20071;-76
2023/10/01 02:31:56;;;;;;;24.38;12.00;;;14.60;99.90;;;;;;5063552;28;20028;-77
2023/10/01 02:34:29;;;;;;;27.48;12.77;;;14.60;99.90;;;;;;5063421;28;20417;-75
2023/10/01 02:36:55;;;;;;;24.27;12.32;;;14.60;99.90;;;;;;5063293;28;20080;-79
2023/10/01 02:39:28;;;;;;;24.30;12.32;;;14.60;99.90;;;;;;5062810;28;20098;-76
2023/10/01 02:44:31;;;;;;;28.60;13.27;;;14.60;99.90;;;;;;5063389;28;20020;-77
2023/10/01 02:47:09;;;;;;;25.98;13.20;;;14.60;99.90;;;;;;5063595;28;20085;-76
2023/10/01 02:49:47;;;;;;;26.33;13.60;;;14.60;99.90;;;;;;5061551;28;20037;-78
2023/10/01 02:52:14;;;;;;;27.55;13.57;;;14.60;99.90;;;;;;5061734;28;20121;-75
2023/10/01 02:54:40;;;;;;;27.90;13.90;;;14.60;99.90;;;;;;5063389;28;20055;-77
2023/10/01 02:57:12;;;;;;;25.25;13.90;;;14.60;99.90;;;;;;5061517;28;20128;-76
2023/10/01 03:02:30;;;;;;;29.38;15.25;;;14.60;99.90;;;;;;5062665;28;20039;-75
2023/10/01 03:05:03;;;;;;;28.33;13.95;;;14.60;99.90;;;;;;5062635;28;20021;-77
2023/10/01 03:07:38;;;;;;;29.88;14.82;;;14.60;99.90;;;;;;5063230;28;20021;-78
2023/10/01 03:10:15;;;;;;;28.17;15.80;;;14.60;99.90;;;;;;5062556;28;20029;-78
2023/10/01 03:12:42;;;;;;;26.08;15.00;;;14.50;99.90;;;;;;5060976;28;20574;-75
2023/10/01 03:17:55;;;;;;;28.52;15.80;;;14.50;99.90;;;;;;5062222;28;20025;-75
2023/10/01 03:23:10;;;;;;;31.65;16.00;;;14.40;99.90;;;;;;5062759;28;20100;-77
2023/10/01 03:28:26;;;;;;;33.28;16.80;;;14.40;99.90;;;;;;5062637;28;20040;-76
2023/10/01 03:31:29;;;;;;;33.67;16.63;;;14.40;99.90;;;;;;5061204;28;20033;-76
2023/10/01 03:33:53;;;;;;;33.15;16.92;;;14.40;99.90;;;;;;5063837;28;20111;-76
2023/10/01 03:36:28;;;;;;;34.88;17.00;;;14.40;99.90;;;;;;5061187;28;20044;-75
2023/10/01 03:38:59;;;;;;;30.45;18.02;;;14.30;99.90;;;;;;5062065;28;20076;-76
2023/10/01 03:41:27;;;;;;;31.65;17.02;;;14.30;99.90;;;;;;5060741;28;20465;-76
2023/10/01 03:44:08;;;;;;;27.88;16.23;;;14.30;99.90;;;;;;5061673;28;20041;-77
2023/10/01 03:46:42;;;;;;;30.67;16.52;;;14.30;99.90;;;;;;5060908;28;20588;-76
2023/10/01 03:51:53;;;;;;;;;;;14.30;99.90;;;;;;5061126;28;20067;-77
2023/10/01 03:54:20;;;;;;;31.95;16.98;;;14.20;99.90;;;;;;5059996;28;19913;-77
2023/10/01 03:56:58;;;;;;;29.80;18.30;;;14.20;99.90;;;;;;5062103;28;20025;-77
2023/10/01 03:59:28;;;;;;;29.92;17.15;;;14.20;99.90;;;;;;5061500;28;20086;-77
2023/10/01 04:02:00;;;;;;;31.90;18.25;;;14.10;99.90;;;;;;5061854;28;20056;-77
2023/10/01 04:04:56;;;;;;;39.97;19.40;;;14.10;99.90;;;;;;5061788;28;20691;-75
2023/10/01 04:07:18;;;;;;;33.03;18.45;;;14.10;99.90;;;;;;5060977;28;20084;-76
2023/10/01 04:09:47;;;;;;;30.25;18.63;;;14.00;99.90;;;;;;5061964;28;20079;-75
2023/10/01 04:12:20;;;;;;;32.17;18.25;;;14.00;99.90;;;;;;5060672;28;20043;-75
2023/10/01 04:14:52;;;;;;;32.10;17.73;;;14.00;99.90;;;;;;5061417;28;20052;-76
2023/10/01 04:17:35;;;;;;;36.45;19.23;;;14.00;99.90;;;;;;5060481;28;20021;-77
2023/10/01 04:20:13;;;;;;;35.00;19.25;;;14.00;99.90;;;;;;5059816;28;20048;-75
2023/10/01 04:22:40;;;;;;;34.55;18.73;;;13.90;99.90;;;;;;5061466;28;20023;-75
2023/10/01 04:25:11;;;;;;;37.92;19.25;;;13.90;99.90;;;;;;5060073;28;20025;-77
2023/10/01 04:27:41;;;;;;;34.15;18.02;;;13.90;99.90;;;;;;5059433;28;20056;-76
2023/10/01 04:30:09;;;;;;;35.90;18.15;;;13.90;99.90;;;;;;5059816;28;20025;-75
2023/10/01 04:32:36;;;;;;;37.28;18.92;;;13.80;99.90;;;;;;5061556;28;20534;-76
2023/10/01 04:35:14;;;;;;;31.90;17.50;;;13.80;99.90;;;;;;5060588;28;20040;-76
2023/10/01 04:37:41;;;;;;;34.72;18.60;;;13.80;99.90;;;;;;5061056;28;20048;-76
2023/10/01 04:42:52;;;;;;;35.97;19.35;;;13.80;99.90;;;;;;5061081;28;20028;-77
2023/10/01 04:45:24;;;;;;;37.63;19.55;;;13.80;99.90;;;;;;5061941;28;20021;-76
2023/10/01 04:47:55;;;;;;;36.17;18.40;;;13.70;99.90;;;;;;5061283;28;20021;-76
2023/10/01 04:50:27;;;;;;;37.58;20.35;;;13.70;99.90;;;;;;5060345;28;20037;-76
2023/10/01 04:52:58;;;;;;;40.35;21.80;;;13.60;99.90;;;;;;5059981;28;20064;-77
2023/10/01 04:55:28;;;;;;;39.67;21.25;;;13.50;99.90;;;;;;5060681;28;20080;-76
2023/10/01 04:57:57;;;;;;;45.63;22.35;;;13.50;99.90;;;;;;5059707;28;20136;-75
2023/10/01 05:00:26;;;;;;;47.45;22.38;;;13.50;99.90;;;;;;5058983;28;20028;-75
2023/10/01 05:02:52;;;;;;;46.25;23.33;;;13.40;99.90;;;;;;5059208;28;20033;-76
2023/10/01 05:05:27;;;;;;;37.33;21.00;;;13.30;99.90;;;;;;5063860;28;20028;-76
2023/10/01 05:07:56;;;;;;;37.50;21.35;;;13.40;99.90;;;;;;5063724;28;20084;-75
2023/10/01 05:10:26;;;;;;;37.17;21.08;;;13.40;99.90;;;;;;5063650;28;20041;-76
2023/10/01 05:12:58;;;;;;;39.28;22.10;;;13.40;99.90;;;;;;5063115;28;20025;-77
2023/10/01 05:15:35;;;;;;;42.05;22.25;;;13.30;99.90;;;;;;5064833;28;20048;-76
2023/10/01 05:18:04;;;;;;;42.85;21.25;;;13.30;99.90;;;;;;5065031;28;20045;-76
2023/10/01 05:20:30;;;;;;;39.58;21.52;;;13.30;99.90;;;;;;5062560;28;20032;-76
2023/10/01 05:22:59;;;;;;;39.05;21.55;;;13.40;99.90;;;;;;5063958;28;20032;-75
2023/10/01 05:25:26;;;;;;;37.28;21.25;;;13.40;99.90;;;;;;5063820;28;20017;-74
2023/10/01 05:27:54;;;;;;;36.15;21.10;;;13.40;99.90;;;;;;5063575;28;20528;-74
2023/10/01 05:30:39;;;;;;;39.63;21.35;;;13.40;99.90;;;;;;5063957;28;20096;-74
2023/10/01 05:33:06;;;;;;;36.95;21.52;;;13.40;99.90;;;;;;5063833;28;20028;-74
2023/10/01 05:35:38;;;;;;;37.92;21.00;;;13.40;99.90;;;;;;5064737;28;20029;-74
2023/10/01 05:38:04;;;;;;;41.88;22.08;;;13.40;99.90;;;;;;5063756;28;20113;-74
2023/10/01 05:40:34;;;;;;;39.28;21.80;;;13.40;99.90;;;;;;5064010;28;20029;-74
2023/10/01 05:43:12;;;;;;;35.33;21.25;;;13.40;99.90;;;;;;5063520;28;20051;-74
2023/10/01 05:45:39;;;;;;;44.42;22.17;;;13.40;99.90;;;;;;5064127;28;20078;-74
2023/10/01 05:48:10;;;;;;;37.92;20.45;;;13.40;99.90;;;;;;5064198;28;20033;-74
2023/10/01 05:50:38;;;;;;;37.10;21.73;;;13.50;99.90;;;;;;5059965;28;20036;-74
2023/10/01 05:53:04;;;;;;;42.45;21.45;;;13.50;99.90;;;;;;5064306;28;20029;-74
2023/10/01 05:55:30;;;;;;;37.50;21.85;;;13.50;99.90;;;;;;5064161;28;20032;-74
2023/10/01 05:58:12;;;;;;;37.22;21.33;;;13.50;99.90;;;;;;5062700;28;20021;-74
2023/10/01 06:00:44;;;;;;;39.10;21.42;;;13.50;99.90;;;;;;5064177;28;20084;-73
2023/10/01 06:03:12;;;;;;;42.53;21.50;;;13.50;99.90;;;;;;5063998;28;20108;-74
2023/10/01 06:05:46;;;;;;;35.72;20.42;;;13.50;99.90;;;;;;5064157;28;20032;-74
2023/10/01 06:08:17;;;;;;;39.03;21.75;;;13.50;99.90;;;;;;5062051;28;20017;-74
2023/10/01 06:11:04;;;;;;;41.30;21.45;;;13.50;99.90;;;;;;5061048;28;20108;-74
2023/10/01 06:13:48;;;;;;;38.50;21.13;;;13.50;99.90;;;;;;5062506;28;20075;-74
2023/10/01 06:16:22;;;;;;;43.40;21.85;;;13.50;99.90;;;;;;5061878;28;20105;-74
2023/10/01 06:18:59;;;;;;;37.58;21.13;;;13.50;99.90;;;;;;5062575;28;20029;-74
2023/10/01 06:21:26;;;;;;;38.30;21.08;;;13.60;99.90;;;;;;5063262;28;20052;-74
2023/10/01 06:23:53;;;;;;;39.97;21.60;;;13.60;99.90;;;;;;5061832;28;20042;-72
2023/10/01 06:26:29;;;;;;;41.25;20.90;;;13.70;99.90;;;;;;5063793;28;20020;-74
2023/10/01 06:28:55;;;;;;;35.65;21.98;;;13.70;99.90;;;;;;5063145;28;20029;-74
2023/10/01 06:31:21;;;;;;;44.35;21.75;;;13.60;99.90;;;;;;5063517;28;20036;-74
2023/10/01 06:33:53;;;;;;;37.70;21.10;;;13.70;99.90;;;;;;5063532;28;20029;-75
2023/10/01 06:36:23;;;;;;;34.10;21.08;;;13.80;99.90;;;;;;5062363;28;20088;-74
2023/10/01 06:38:53;;;;;;;37.83;21.48;;;13.70;99.90;;;;;;5062156;28;20021;-75
2023/10/01 06:41:25;;;;;;;36.33;21.50;;;13.80;99.90;;;;;;5063358;28;20061;-75
2023/10/01 06:43:56;;;;;;;40.72;22.02;;;13.80;99.90;;;;;;5062419;28;20021;-75
2023/10/01 06:46:30;;;;;;;41.20;22.48;;;13.90;99.90;;;;;;5061991;28;20033;-75
2023/10/01 06:48:58;;;;;;;40.20;20.90;;;13.80;99.90;;;;;;5063757;28;20052;-75
2023/10/01 06:51:26;;;;;;;39.95;21.17;;;13.90;99.90;;;;;;5062184;28;20314;-72
2023/10/01 06:54:05;;;;;;;41.70;23.45;;;13.90;99.90;;;;;;5063366;28;20027;-75
2023/10/01 06:56:33;;;;;;;42.05;21.55;;;14.00;99.90;;;;;;5062441;28;20060;-73
2023/10/01 07:01:42;;;;;;;40.53;22.05;;;14.00;99.90;;;;;;5063218;28;20043;-73
2023/10/01 07:04:09;;;;;;;40.85;22.10;;;14.10;99.90;;;;;;5061605;28;20335;-74
2023/10/01 07:06:38;;;;;;;38.33;21.92;;;14.10;99.90;;;;;;5061621;28;20056;-74
2023/10/01 07:09:07;;;;;;;40.30;21.95;;;14.10;99.90;;;;;;5062817;28;20025;-73
2023/10/01 07:11:33;;;;;;;41.25;21.75;;;14.20;99.90;;;;;;5062480;28;20041;-72
2023/10/01 07:14:02;;;;;;;40.30;21.10;;;14.20;99.90;;;;;;5062301;28;20466;-73
2023/10/01 07:16:39;;;;;;;40.78;22.60;;;14.20;99.90;;;;;;5062253;28;20017;-74
2023/10/01 07:19:11;;;;;;;37.78;21.45;;;14.30;99.90;;;;;;5061128;28;20032;-74
2023/10/01 07:21:41;;;;;;;38.70;20.10;;;14.30;99.90;;;;;;5060806;28;20017;-73
2023/10/01 07:24:12;;;;;;;34.58;20.00;;;14.30;99.90;;;;;;5061763;28;20025;-73
2023/10/01 07:26:41;;;;;;;37.28;20.55;;;14.40;99.90;;;;;;5062080;28;20450;-74
2023/10/01 07:29:07;;;;;;;35.15;20.02;;;14.40;99.90;;;;;;5060730;28;20029;-74
2023/10/01 07:31:35;;;;;;;32.15;19.15;;;14.40;99.90;;;;;;5062291;28;20123;-74
2023/10/01 07:34:12;;;;;;;35.80;19.55;;;14.40;99.90;;;;;;5062189;28;20047;-74
2023/10/01 07:36:45;;;;;;;33.15;18.98;;;14.40;99.90;;;;;;5060450;28;20053;-74
2023/10/01 07:39:15;;;;;;;39.40;19.08;;;14.40;99.90;;;;;;5061150;28;20018;-73
2023/10/01 07:41:44;;;;;;;35.72;20.48;;;14.50;99.90;;;;;;5061412;28;20406;-74
2023/10/01 07:44:14;;;;;;;33.08;18.85;;;14.60;99.90;;;;;;5062160;28;20124;-74
2023/10/01 07:46:42;;;;;;;36.17;19.23;;;14.60;99.90;;;;;;5061795;28;20547;-74
2023/10/01 07:49:10;;;;;;;41.17;20.90;;;14.60;99.90;;;;;;5060869;28;20009;-74
2023/10/01 07:51:38;;;;;;;35.83;19.90;;;14.60;99.90;;;;;;5061503;28;20469;-74
2023/10/01 07:54:11;;;;;;;38.10;22.52;;;14.70;99.90;;;;;;5062330;28;20033;-75
2023/10/01 07:56:51;;;;;;;41.15;22.83;;;14.70;99.90;;;;;;5061828;28;20108;-74
2023/10/01 07:59:42;;;;;;;39.65;21.60;;;14.60;99.90;;;;;;5060762;28;20032;-75
2023/10/01 08:03:27;;;;;;;45.63;23.80;;;14.60;99.90;;;;;;5061349;28;20033;-76
2023/10/01 08:04:58;;;;;;;44.95;23.30;;;14.60;99.90;;;;;;5063496;28;20502;-74
2023/10/01 08:07:39;;;;;;;42.22;22.40;;;14.60;99.90;;;;;;5060059;28;20148;-74
2023/10/01 08:10:09;;;;;;;45.45;23.13;;;14.60;99.90;;;;;;5061622;28;20021;-75
2023/10/01 08:15:29;;;;;;;41.30;19.88;;;14.60;99.90;;;;;;5060887;28;20041;-76
2023/10/01 08:17:55;;;;;;;41.90;22.00;;;14.60;99.90;;;;;;5060744;28;20032;-75
2023/10/01 08:20:30;;;;;;;40.67;19.77;;;14.60;99.90;;;;;;5058358;28;20048;-76
2023/10/01 08:23:22;;;;;;;;;;;14.60;99.90;;;;;;5058860;28;20033;-75
2023/10/01 08:25:55;;;;;;;38.50;19.98;;;14.60;99.90;;;;;;5057228;28;19905;-76
2023/10/01 08:28:26;;;;;;;37.47;19.75;;;14.60;99.90;;;;;;5046709;28;20089;-76
2023/10/01 08:31:42;;;;;;;37.35;19.83;;;14.60;99.90;;;;;;5051477;28;20060;-76
2023/10/01 08:33:51;;;;;;;42.05;19.83;;;14.70;99.90;;;;;;5057978;28;20036;-75
2023/10/01 08:36:24;;;;;;;40.67;20.00;;;14.70;99.90;;;;;;5059217;28;20514;-75
2023/10/01 08:39:20;;;;;;;37.17;19.83;;;14.70;99.90;;;;;;5057036;28;20043;-77
2023/10/01 08:41:51;;;;;;;39.55;19.13;;;14.80;99.90;;;;;;5056109;28;20148;-76
2023/10/01 08:44:30;;;;;;;41.05;21.17;;;14.80;99.90;;;;;;5059281;28;20029;-76
2023/10/01 08:47:21;;;;;;;38.70;20.55;;;14.80;99.90;;;;;;5059712;28;20021;-73
2023/10/01 08:49:49;;;;;;;40.45;20.17;;;14.80;99.90;;;;;;5057710;28;20025;-74
2023/10/01 08:52:19;;;;;;;39.75;20.63;;;14.80;99.90;;;;;;5060841;28;20029;-74
2023/10/01 08:54:45;;;;;;;44.35;22.63;;;14.80;99.90;;;;;;5059218;28;20028;-75
2023/10/01 08:57:18;;;;;;;43.40;21.88;;;14.80;99.90;;;;;;5061107;28;20416;-73
2023/10/01 08:59:46;;;;;;;53.42;23.73;;;14.70;99.90;;;;;;5058306;28;20037;-73
2023/10/01 09:02:19;;;;;;;49.88;24.88;;;14.70;99.90;;;;;;5059559;28;20029;-74
2023/10/01 09:04:45;;;;;;;45.17;23.13;;;14.70;99.90;;;;;;5061073;28;20047;-74
2023/10/01 09:07:20;;;;;;;47.13;22.58;;;14.70;99.90;;;;;;5059174;28;20078;-74
2023/10/01 09:10:08;;;;;;;49.35;22.90;;;14.70;99.90;;;;;;5058081;28;20021;-76
2023/10/01 09:12:34;;;;;;;55.33;24.23;;;14.70;99.90;;;;;;5056665;28;20025;-73
2023/10/01 09:15:04;;;;;;;48.60;23.25;;;14.80;99.90;;;;;;5056686;28;20025;-75
2023/10/01 09:17:56;;;;;;;42.40;22.65;;;14.80;99.90;;;;;;5059102;28;20084;-75
2023/10/01 09:20:42;;;;;;;49.45;22.30;;;14.80;99.90;;;;;;5060526;28;20191;-72
2023/10/01 09:23:08;;;;;;;47.17;22.77;;;14.90;99.90;;;;;;5060161;28;20025;-74
2023/10/01 09:25:39;;;;;;;49.20;22.75;;;15.00;99.90;;;;;;5061151;28;20025;-75
2023/10/01 09:28:29;;;;;;;47.90;21.50;;;15.00;99.90;;;;;;5060377;28;20017;-74
2023/10/01 09:31:17;;;;;;;49.65;23.13;;;15.10;99.90;;;;;;5058609;28;20036;-76
2023/10/01 09:33:48;;;;;;;44.50;21.65;;;15.20;99.90;;;;;;5059768;28;20024;-72
2023/10/01 09:36:45;;;;;;;43.30;20.92;;;15.40;99.90;;;;;;5060034;28;20041;-75
2023/10/01 09:39:13;;;;;;;41.50;20.27;;;15.40;99.90;;;;;;5059579;28;20032;-74
2023/10/01 09:41:42;;;;;;;36.50;19.75;;;15.40;99.90;;;;;;5056548;28;20025;-76
2023/10/01 09:44:09;;;;;;;40.90;20.27;;;15.50;99.90;;;;;;5056520;28;20040;-74
2023/10/01 09:46:37;;;;;;;39.25;19.75;;;15.50;99.90;;;;;;5056397;28;20048;-74
2023/10/01 09:49:05;;;;;;;36.35;18.27;;;15.50;99.90;;;;;;5058582;28;20029;-74
2023/10/01 09:51:41;;;;;;;43.50;20.25;;;15.60;99.90;;;;;;5060450;28;20047;-74
2023/10/01 09:54:11;;;;;;;43.33;18.58;;;15.60;99.90;;;;;;5063999;28;20576;-74
2023/10/01 09:56:46;;;;;;;42.88;19.52;;;15.60;99.90;;;;;;5063712;28;20052;-76
2023/10/01 09:59:12;;;;;;;52.10;19.70;;;15.60;99.90;;;;;;5059580;28;20029;-74
2023/10/01 10:01:39;;;;;;;40.58;19.27;;;15.60;99.90;;;;;;5061109;28;20032;-75
2023/10/01 10:04:20;;;;;;;44.17;18.25;;;15.60;99.90;;;;;;5055277;28;20041;-72
2023/10/01 10:06:59;;;;;;;48.67;19.60;;;15.60;99.90;;;;;;5056240;28;20049;-75
2023/10/01 10:09:26;;;;;;;37.67;18.17;;;15.60;99.90;;;;;;5059904;28;20036;-72
2023/10/01 10:11:53;;;;;;;39.35;18.95;;;15.50;99.90;;;;;;5070570;28;20438;-74
2023/10/01 10:14:25;;;;;;;47.58;19.70;;;15.50;99.90;;;;;;5062192;28;20053;-75
2023/10/01 10:17:07;;;;;;;45.20;19.90;;;15.50;99.90;;;;;;5063331;28;20021;-75
2023/10/01 10:23:13;;;;;;;41.67;19.50;;;15.50;99.90;;;;;;5052928;28;21069;-74
2023/10/01 10:25:45;;;;;;;39.15;18.90;;;15.50;99.90;;;;;;5059490;28;20088;-73
2023/10/01 10:28:24;;;;;;;41.92;18.80;;;15.50;99.90;;;;;;5053762;28;20873;-74
2023/10/01 10:31:35;;;;;;;40.13;18.45;;;15.50;99.90;;;;;;5058311;28;20045;-73
2023/10/01 10:34:21;;;;;;;41.92;19.40;;;15.50;99.90;;;;;;5057141;28;20025;-73
2023/10/01 10:36:57;;;;;;;43.58;21.02;;;15.50;99.90;;;;;;5054816;28;20057;-74
2023/10/01 10:40:02;;;;;;;46.22;23.05;;;15.60;99.90;;;;;;5057172;28;20028;-73
2023/10/01 10:42:28;;;;;;;49.40;23.45;;;15.60;99.90;;;;;;5047428;28;20025;-73
2023/10/01 10:45:19;;;;;;;44.60;22.58;;;15.70;99.90;;;;;;5058256;28;20029;-72
2023/10/01 10:48:02;;;;;;;50.70;26.33;;;15.70;99.90;;;;;;5057140;28;21531;-74
2023/10/01 10:50:53;;;;;;;49.17;25.63;;;15.70;99.90;;;;;;5060951;28;20037;-73
2023/10/01 10:53:21;;;;;;;51.88;26.92;;;15.70;99.90;;;;;;5058907;28;20033;-75
2023/10/01 10:55:54;;;;;;;55.50;26.88;;;15.70;99.90;;;;;;5057894;28;20394;-75
2023/10/01 10:58:26;;;;;;;55.85;26.88;;;15.70;99.90;;;;;;5061059;28;20111;-73
2023/10/01 11:00:53;;;;;;;49.95;26.58;;;15.70;99.90;;;;;;5060306;28;20102;-74
2023/10/01 11:03:40;;;;;;;51.88;26.52;;;15.70;99.90;;;;;;5059541;28;20037;-73
2023/10/01 11:06:29;;;;;;;58.85;26.75;;;15.70;99.90;;;;;;5060792;28;20029;-73
2023/10/01 11:08:56;;;;;;;58.00;28.25;;;15.70;99.90;;;;;;5059669;28;20382;-74
2023/10/01 11:11:39;;;;;;;60.53;28.77;;;15.60;99.90;;;;;;5060820;28;20043;-74
2023/10/01 11:14:12;;;;;;;57.92;28.98;;;15.60;99.90;;;;;;5061190;28;20424;-75
2023/10/01 11:16:40;;;;;;;68.07;30.13;;;15.60;99.90;;;;;;5059513;28;20100;-72
2023/10/01 11:19:16;;;;;;;59.90;29.23;;;15.60;99.90;;;;;;5056076;28;20044;-74
2023/10/01 11:21:59;;;;;;;51.47;28.92;;;15.60;99.90;;;;;;5059900;28;20040;-74
2023/10/01 11:24:29;;;;;;;58.30;26.20;;;15.60;99.90;;;;;;5057899;28;20029;-74
2023/10/01 11:30:19;;;;;;;49.13;25.63;;;15.70;99.90;;;;;;5061143;28;20048;-74
2023/10/01 11:32:58;;;;;;;57.92;26.55;;;15.60;99.90;;;;;;5054267;28;20041;-74
2023/10/01 11:35:40;;;;;;;54.15;27.33;;;15.60;99.90;;;;;;5055725;28;20056;-75
2023/10/01 11:38:18;;;;;;;54.10;25.88;;;15.70;99.90;;;;;;5058877;28;20049;-73
2023/10/01 11:43:40;;;;;;;48.30;25.00;;;15.80;99.90;;;;;;5050010;28;20048;-74
2023/10/01 11:46:24;;;;;;;51.55;25.65;;;15.80;99.90;;;;;;5057163;28;20029;-73
2023/10/01 11:49:02;;;;;;;46.47;24.45;;;15.90;99.90;;;;;;5058665;28;20029;-74
2023/10/01 11:51:54;;;;;;;55.63;24.67;;;15.90;99.90;;;;;;5060687;28;20064;-73
2023/10/01 11:54:43;;;;;;;51.08;23.10;;;16.00;99.90;;;;;;5058370;28;20013;-75
2023/10/01 11:57:27;;;;;;;50.88;22.48;;;16.10;99.90;;;;;;5058774;28;20044;-73
2023/10/01 11:59:58;;;;;;;50.25;21.77;;;16.20;99.90;;;;;;5058789;28;20020;-74
2023/10/01 12:02:33;;;;;;;43.60;20.75;;;16.20;99.90;;;;;;5059765;28;20087;-69
2023/10/01 12:05:16;;;;;;;46.08;20.63;;;16.20;99.90;;;;;;5060150;28;20028;-71
2023/10/01 12:07:43;;;;;;;41.42;19.98;;;16.20;99.90;;;;;;5058266;28;20039;-71
2023/10/01 12:10:31;;;;;;;41.95;19.05;;;16.30;99.90;;;;;;5059341;28;20053;-72
2023/10/01 12:12:56;;;;;;;37.08;18.13;;;16.30;99.90;;;;;;5060348;28;20431;-72
2023/10/01 12:15:34;;;;;;;34.60;15.75;;;16.40;99.90;;;;;;5060511;28;20017;-69
2023/10/01 12:18:07;;;;;;;33.38;15.40;;;16.50;99.90;;;;;;5061117;28;20029;-71
2023/10/01 12:20:39;;;;;;;29.73;15.47;;;16.60;99.90;;;;;;5061572;28;20020;-70
2023/10/01 12:23:11;;;;;;;31.58;14.55;;;16.70;99.90;;;;;;5061221;28;20287;-70
2023/10/01 12:25:45;;;;;;;35.50;15.43;;;16.80;99.90;;;;;;5061267;28;20055;-73
2023/10/01 12:28:19;;;;;;;38.92;14.98;;;17.00;99.90;;;;;;5057636;28;20033;-73
2023/10/01 12:30:57;;;;;;;33.38;15.50;;;17.10;99.90;;;;;;5060880;28;20052;-72
2023/10/01 12:33:46;;;;;;;32.83;14.63;;;17.20;99.90;;;;;;5058633;28;20043;-72
2023/10/01 12:36:32;;;;;;;32.20;15.25;;;17.20;99.90;;;;;;5060444;28;20048;-73
2023/10/01 12:41:47;;;;;;;35.58;14.60;;;17.30;99.90;;;;;;5060825;28;20025;-73
2023/10/01 12:44:33;;;;;;;35.15;15.15;;;17.30;99.90;;;;;;5060948;28;20021;-76
2023/10/01 12:47:01;;;;;;;29.17;13.25;;;17.30;99.90;;;;;;5060920;28;20025;-72
2023/10/01 12:49:34;;;;;;;27.60;13.63;;;17.30;99.90;;;;;;5058243;28;20088;-69
2023/10/01 12:52:00;;;;;;;29.48;13.75;;;17.30;99.90;;;;;;5059909;28;20036;-71
2023/10/01 12:54:26;;;;;;;29.25;14.43;;;17.40;99.90;;;;;;5059954;28;20017;-72
2023/10/01 13:02:28;;;;;;;29.20;12.93;;;17.50;99.90;;;;;;5057436;28;20033;-73
2023/10/01 13:05:19;;;;;;;30.15;13.18;;;17.50;99.90;;;;;;5058115;28;20084;-70
2023/10/01 13:07:48;;;;;;;30.08;13.88;;;17.60;99.90;;;;;;5059511;28;20468;-73
2023/10/01 13:10:33;;;;;;;30.67;15.43;;;17.60;99.90;;;;;;5059028;28;20033;-73
2023/10/01 13:13:01;;;;;;;28.42;14.18;;;17.60;99.90;;;;;;5058788;28;20052;-72
2023/10/01 13:15:30;;;;;;;35.35;14.18;;;17.70;99.90;;;;;;5061313;28;20508;-72
2023/10/01 13:18:09;;;;;;;31.23;13.05;;;17.70;99.90;;;;;;5061275;28;20035;-72
2023/10/01 13:23:41;;;;;;;32.45;13.57;;;17.80;99.90;;;;;;5071496;28;20033;-72
2023/10/01 13:26:15;;;;;;;29.73;11.85;;;17.90;99.90;;;;;;5063763;28;20013;-73
2023/10/01 13:29:00;;;;;;;25.63;12.30;;;18.00;99.90;;;;;;5061037;28;20029;-74
2023/10/01 13:34:06;;;;;;;28.88;12.90;;;18.20;99.90;;;;;;5063422;28;20071;-73
2023/10/01 13:36:46;;;;;;;26.63;11.80;;;18.30;99.90;;;;;;5064179;28;20094;-73
2023/10/01 14:09:16;;;;;;;26.15;10.00;;;18.50;99.90;;;;;;5039776;28;20052;-71
2023/10/01 14:11:42;;;;;;;23.25;9.48;;;18.50;99.90;;;;;;5040999;28;20025;-71
2023/10/01 14:14:08;;;;;;;27.20;10.13;;;18.50;99.90;;;;;;5023338;28;20568;-71